sensor_id;sensor_type;location;lat;lon;timestamp;pressure;altitude;pressure_sealevel;temperature;humidity
63554;BME280;49699;48.072;7.800;2023-06-10T00:02:17;98897.22;;;18.37;59.61
63554;BME280;49699;48.072;7.800;2023-06-10T00:04:42;98900.28;;;18.33;59.67
63554;BME280;49699;48.072;7.800;2023-06-10T00:07:08;98898.78;;;18.30;59.99
63554;BME280;49699;48.072;7.800;2023-06-10T00:09:37;98906.19;;;18.27;60.06
63554;BME280;49699;48.072;7.800;2023-06-10T00:12:07;98897.06;;;18.21;60.39
63554;BME280;49699;48.072;7.800;2023-06-10T00:14:33;98905.00;;;18.12;60.61
63554;BME280;49699;48.072;7.800;2023-06-10T00:16:59;98903.44;;;18.01;61.05
63554;BME280;49699;48.072;7.800;2023-06-10T00:19:25;98905.44;;;17.89;61.38
63554;BME280;49699;48.072;7.800;2023-06-10T00:21:55;98906.31;;;17.80;61.60
63554;BME280;49699;48.072;7.800;2023-06-10T00:24:21;98896.69;;;17.71;61.74
63554;BME280;49699;48.072;7.800;2023-06-10T00:26:47;98900.16;;;17.62;62.04
63554;BME280;49699;48.072;7.800;2023-06-10T00:29:13;98905.84;;;17.57;62.26
63554;BME280;49699;48.072;7.800;2023-06-10T00:31:39;98898.53;;;17.51;62.55
63554;BME280;49699;48.072;7.800;2023-06-10T00:34:06;98900.78;;;17.46;62.67
63554;BME280;49699;48.072;7.800;2023-06-10T00:36:32;98906.59;;;17.40;63.10
63554;BME280;49699;48.072;7.800;2023-06-10T00:38:58;98900.13;;;17.34;63.35
63554;BME280;49699;48.072;7.800;2023-06-10T00:41:23;98903.31;;;17.28;63.77
63554;BME280;49699;48.072;7.800;2023-06-10T00:43:49;98908.47;;;17.20;64.08
63554;BME280;49699;48.072;7.800;2023-06-10T00:46:15;98908.91;;;17.16;64.34
63554;BME280;49699;48.072;7.800;2023-06-10T00:48:42;98907.38;;;17.13;64.40
63554;BME280;49699;48.072;7.800;2023-06-10T00:51:09;98899.50;;;17.13;64.62
63554;BME280;49699;48.072;7.800;2023-06-10T00:53:39;98896.72;;;17.15;64.62
63554;BME280;49699;48.072;7.800;2023-06-10T00:56:06;98902.69;;;17.17;64.43
63554;BME280;49699;48.072;7.800;2023-06-10T00:58:32;98899.91;;;17.18;64.76
63554;BME280;49699;48.072;7.800;2023-06-10T01:00:57;98904.84;;;17.21;64.67
63554;BME280;49699;48.072;7.800;2023-06-10T01:03:26;98906.53;;;17.22;64.68
63554;BME280;49699;48.072;7.800;2023-06-10T01:09:20;98912.34;;;17.26;65.24
63554;BME280;49699;48.072;7.800;2023-06-10T01:14:36;98915.09;;;17.24;65.45
63554;BME280;49699;48.072;7.800;2023-06-10T01:17:02;98907.63;;;17.20;65.45
63554;BME280;49699;48.072;7.800;2023-06-10T01:19:28;98918.59;;;17.15;65.92
63554;BME280;49699;48.072;7.800;2023-06-10T01:21:56;98924.97;;;17.13;66.06
63554;BME280;49699;48.072;7.800;2023-06-10T01:24:26;98928.44;;;17.13;66.40
63554;BME280;49699;48.072;7.800;2023-06-10T01:26:53;98925.09;;;17.11;66.46
63554;BME280;49699;48.072;7.800;2023-06-10T01:29:28;98938.41;;;17.10;66.52
63554;BME280;49699;48.072;7.800;2023-06-10T01:32:02;98930.78;;;17.07;66.58
63554;BME280;49699;48.072;7.800;2023-06-10T01:34:31;98926.78;;;17.02;66.91
63554;BME280;49699;48.072;7.800;2023-06-10T01:36:58;98937.44;;;17.01;67.01
63554;BME280;49699;48.072;7.800;2023-06-10T01:39:24;98936.22;;;16.95;67.42
63554;BME280;49699;48.072;7.800;2023-06-10T01:41:51;98931.38;;;16.91;67.38
63554;BME280;49699;48.072;7.800;2023-06-10T01:44:18;98933.31;;;16.89;67.76
63554;BME280;49699;48.072;7.800;2023-06-10T01:46:45;98928.19;;;16.87;67.78
63554;BME280;49699;48.072;7.800;2023-06-10T01:49:10;98940.63;;;16.85;68.09
63554;BME280;49699;48.072;7.800;2023-06-10T01:51:35;98938.31;;;16.82;68.19
63554;BME280;49699;48.072;7.800;2023-06-10T01:54:01;98932.50;;;16.79;68.22
63554;BME280;49699;48.072;7.800;2023-06-10T01:56:26;98935.25;;;16.77;68.64
63554;BME280;49699;48.072;7.800;2023-06-10T01:58:52;98936.22;;;16.76;68.56
63554;BME280;49699;48.072;7.800;2023-06-10T02:01:21;98938.28;;;16.73;68.69
63554;BME280;49699;48.072;7.800;2023-06-10T02:03:46;98941.34;;;16.68;68.70
63554;BME280;49699;48.072;7.800;2023-06-10T02:06:11;98942.31;;;16.67;68.97
63554;BME280;49699;48.072;7.800;2023-06-10T02:08:37;98943.28;;;16.66;69.02
63554;BME280;49699;48.072;7.800;2023-06-10T02:11:02;98939.97;;;16.64;69.12
63554;BME280;49699;48.072;7.800;2023-06-10T02:13:28;98949.66;;;16.63;69.12
63554;BME280;49699;48.072;7.800;2023-06-10T02:15:54;98950.72;;;16.61;69.05
63554;BME280;49699;48.072;7.800;2023-06-10T02:18:20;98941.31;;;16.58;69.11
63554;BME280;49699;48.072;7.800;2023-06-10T02:20:46;98944.22;;;16.55;69.26
63554;BME280;49699;48.072;7.800;2023-06-10T02:23:12;98938.41;;;16.52;69.22
63554;BME280;49699;48.072;7.800;2023-06-10T02:25:37;98946.72;;;16.47;69.46
63554;BME280;49699;48.072;7.800;2023-06-10T02:28:02;98950.56;;;16.43;69.38
63554;BME280;49699;48.072;7.800;2023-06-10T02:30:28;98952.63;;;16.40;69.57
63554;BME280;49699;48.072;7.800;2023-06-10T02:32:54;98952.22;;;16.35;69.84
63554;BME280;49699;48.072;7.800;2023-06-10T02:35:22;98953.44;;;16.30;69.86
63554;BME280;49699;48.072;7.800;2023-06-10T02:37:50;98960.78;;;16.27;69.84
63554;BME280;49699;48.072;7.800;2023-06-10T02:40:17;98961.88;;;16.24;70.34
63554;BME280;49699;48.072;7.800;2023-06-10T02:42:43;98959.66;;;16.20;70.22
63554;BME280;49699;48.072;7.800;2023-06-10T02:45:08;98958.81;;;16.19;70.42
63554;BME280;49699;48.072;7.800;2023-06-10T02:47:38;98950.38;;;16.16;70.42
63554;BME280;49699;48.072;7.800;2023-06-10T02:50:06;98957.84;;;16.11;70.65
63554;BME280;49699;48.072;7.800;2023-06-10T02:52:36;98962.81;;;16.04;70.58
63554;BME280;49699;48.072;7.800;2023-06-10T02:55:02;98960.56;;;16.00;71.19
63554;BME280;49699;48.072;7.800;2023-06-10T02:57:27;98957.38;;;15.96;71.07
63554;BME280;49699;48.072;7.800;2023-06-10T02:59:52;98967.34;;;15.92;71.24
63554;BME280;49699;48.072;7.800;2023-06-10T03:02:19;98960.44;;;15.91;71.23
63554;BME280;49699;48.072;7.800;2023-06-10T03:04:49;98966.63;;;15.90;71.24
63554;BME280;49699;48.072;7.800;2023-06-10T03:07:17;98963.44;;;15.87;71.53
63554;BME280;49699;48.072;7.800;2023-06-10T03:09:44;98977.78;;;15.83;71.60
63554;BME280;49699;48.072;7.800;2023-06-10T03:12:11;98981.63;;;15.79;71.82
63554;BME280;49699;48.072;7.800;2023-06-10T03:14:41;98978.16;;;15.78;72.06
63554;BME280;49699;48.072;7.800;2023-06-10T03:17:07;98978.16;;;15.78;71.82
63554;BME280;49699;48.072;7.800;2023-06-10T03:19:34;98978.47;;;15.75;71.96
63554;BME280;49699;48.072;7.800;2023-06-10T03:22:08;98982.03;;;15.74;72.31
63554;BME280;49699;48.072;7.800;2023-06-10T03:24:37;98990.63;;;15.76;72.06
63554;BME280;49699;48.072;7.800;2023-06-10T03:27:07;98985.50;;;15.75;71.95
63554;BME280;49699;48.072;7.800;2023-06-10T03:29:34;98985.63;;;15.73;72.03
63554;BME280;49699;48.072;7.800;2023-06-10T03:32:00;98984.94;;;15.71;72.14
63554;BME280;49699;48.072;7.800;2023-06-10T03:34:27;98985.75;;;15.72;72.10
63554;BME280;49699;48.072;7.800;2023-06-10T03:36:53;98990.03;;;15.73;72.02
63554;BME280;49699;48.072;7.800;2023-06-10T03:39:18;98989.34;;;15.71;72.03
63554;BME280;49699;48.072;7.800;2023-06-10T03:41:44;98988.50;;;15.70;71.95
63554;BME280;49699;48.072;7.800;2023-06-10T03:44:10;98988.63;;;15.69;72.00
63554;BME280;49699;48.072;7.800;2023-06-10T03:46:36;98987.81;;;15.68;71.90
63554;BME280;49699;48.072;7.800;2023-06-10T03:49:01;98990.44;;;15.68;71.98
63554;BME280;49699;48.072;7.800;2023-06-10T03:51:29;98991.53;;;15.66;71.82
63554;BME280;49699;48.072;7.800;2023-06-10T03:53:54;98984.88;;;15.61;72.13
63554;BME280;49699;48.072;7.800;2023-06-10T03:56:21;98989.69;;;15.56;72.25
63554;BME280;49699;48.072;7.800;2023-06-10T03:58:48;98988.97;;;15.54;72.34
63554;BME280;49699;48.072;7.800;2023-06-10T04:01:13;98993.50;;;15.52;72.41
63554;BME280;49699;48.072;7.800;2023-06-10T04:03:39;98992.78;;;15.50;72.34
63554;BME280;49699;48.072;7.800;2023-06-10T04:06:07;98992.78;;;15.50;72.50
63554;BME280;49699;48.072;7.800;2023-06-10T04:08:33;99002.47;;;15.50;72.72
63554;BME280;49699;48.072;7.800;2023-06-10T04:10:59;99002.59;;;15.48;72.86
63554;BME280;49699;48.072;7.800;2023-06-10T04:13:26;99002.59;;;15.48;72.89
63554;BME280;49699;48.072;7.800;2023-06-10T04:15:54;98997.47;;;15.47;72.86
63554;BME280;49699;48.072;7.800;2023-06-10T04:18:20;99005.34;;;15.47;72.93
63554;BME280;49699;48.072;7.800;2023-06-10T04:20:47;99013.19;;;15.47;72.97
63554;BME280;49699;48.072;7.800;2023-06-10T04:23:13;99010.44;;;15.48;73.18
63554;BME280;49699;48.072;7.800;2023-06-10T04:25:40;99015.81;;;15.47;73.26
63554;BME280;49699;48.072;7.800;2023-06-10T04:28:06;99013.31;;;15.45;73.34
63554;BME280;49699;48.072;7.800;2023-06-10T04:30:32;99017.88;;;15.43;73.29
63554;BME280;49699;48.072;7.800;2023-06-10T04:32:57;99026.81;;;15.41;73.37
63554;BME280;49699;48.072;7.800;2023-06-10T04:35:23;99024.19;;;15.41;73.37
63554;BME280;49699;48.072;7.800;2023-06-10T04:37:48;99037.75;;;15.46;73.42
63554;BME280;49699;48.072;7.800;2023-06-10T04:40:14;99036.16;;;15.54;73.25
63554;BME280;49699;48.072;7.800;2023-06-10T04:42:41;99036.06;;;15.56;73.00
63554;BME280;49699;48.072;7.800;2023-06-10T04:45:07;99042.03;;;15.58;72.88
63554;BME280;49699;48.072;7.800;2023-06-10T04:47:33;99047.81;;;15.61;72.81
63554;BME280;49699;48.072;7.800;2023-06-10T04:50:03;99050.19;;;15.65;72.69
63554;BME280;49699;48.072;7.800;2023-06-10T04:52:29;99051.72;;;15.67;72.94
63554;BME280;49699;48.072;7.800;2023-06-10T04:54:54;99042.66;;;15.71;72.39
63554;BME280;49699;48.072;7.800;2023-06-10T04:57:20;99046.50;;;15.77;72.39
63554;BME280;49699;48.072;7.800;2023-06-10T04:59:47;99045.56;;;15.78;72.48
63554;BME280;49699;48.072;7.800;2023-06-10T05:02:12;99040.88;;;15.81;72.23
63554;BME280;49699;48.072;7.800;2023-06-10T05:04:38;99044.78;;;15.87;72.27
63554;BME280;49699;48.072;7.800;2023-06-10T05:07:04;99048.81;;;15.91;72.15
63554;BME280;49699;48.072;7.800;2023-06-10T05:09:30;99052.81;;;15.95;71.88
63554;BME280;49699;48.072;7.800;2023-06-10T05:11:55;99056.72;;;16.01;71.74
63554;BME280;49699;48.072;7.800;2023-06-10T05:14:21;99064.66;;;16.10;71.61
63554;BME280;49699;48.072;7.800;2023-06-10T05:16:47;99062.88;;;16.20;71.32
63554;BME280;49699;48.072;7.800;2023-06-10T05:19:13;99064.72;;;16.29;70.67
63554;BME280;49699;48.072;7.800;2023-06-10T05:21:38;99056.16;;;16.37;70.19
63554;BME280;49699;48.072;7.800;2023-06-10T05:24:04;99057.88;;;16.48;69.78
63554;BME280;49699;48.072;7.800;2023-06-10T05:26:29;99057.88;;;16.57;69.55
63554;BME280;49699;48.072;7.800;2023-06-10T05:28:58;99059.88;;;16.65;69.18
63554;BME280;49699;48.072;7.800;2023-06-10T05:31:23;99057.25;;;16.75;68.62
63554;BME280;49699;48.072;7.800;2023-06-10T05:33:49;99053.66;;;16.85;68.30
63554;BME280;49699;48.072;7.800;2023-06-10T05:36:14;99057.13;;;16.95;67.98
63554;BME280;49699;48.072;7.800;2023-06-10T05:38:39;99065.44;;;17.10;67.71
63554;BME280;49699;48.072;7.800;2023-06-10T05:41:05;99069.44;;;17.24;67.28
63554;BME280;49699;48.072;7.800;2023-06-10T05:43:30;99062.38;;;17.34;67.27
63554;BME280;49699;48.072;7.800;2023-06-10T05:45:56;99059.59;;;17.45;66.75
63554;BME280;49699;48.072;7.800;2023-06-10T05:48:21;99053.88;;;17.59;66.56
63554;BME280;49699;48.072;7.800;2023-06-10T05:50:47;99058.88;;;17.72;66.37
63554;BME280;49699;48.072;7.800;2023-06-10T05:53:16;99058.69;;;17.83;66.04
63554;BME280;49699;48.072;7.800;2023-06-10T05:55:42;99061.69;;;17.98;65.65
63554;BME280;49699;48.072;7.800;2023-06-10T05:58:08;99055.97;;;18.12;65.23
63554;BME280;49699;48.072;7.800;2023-06-10T06:00:34;99058.28;;;18.25;64.93
63554;BME280;49699;48.072;7.800;2023-06-10T06:02:59;99055.16;;;18.39;64.64
63554;BME280;49699;48.072;7.800;2023-06-10T06:05:25;99059.09;;;18.53;64.04
63554;BME280;49699;48.072;7.800;2023-06-10T06:07:50;99056.81;;;18.67;63.95
63554;BME280;49699;48.072;7.800;2023-06-10T06:10:17;99056.28;;;18.82;63.47
63554;BME280;49699;48.072;7.800;2023-06-10T06:12:42;99058.72;;;18.93;62.98
63554;BME280;49699;48.072;7.800;2023-06-10T06:15:08;99049.59;;;19.05;62.54
63554;BME280;49699;48.072;7.800;2023-06-10T06:17:34;99048.06;;;19.20;62.15
63554;BME280;49699;48.072;7.800;2023-06-10T06:20:00;99039.44;;;19.36;61.72
63554;BME280;49699;48.072;7.800;2023-06-10T06:22:25;99037.63;;;19.54;61.31
63554;BME280;49699;48.072;7.800;2023-06-10T06:24:50;99051.59;;;19.72;60.87
63554;BME280;49699;48.072;7.800;2023-06-10T06:27:16;99043.78;;;19.89;60.43
63554;BME280;49699;48.072;7.800;2023-06-10T06:29:41;99045.56;;;20.06;60.32
63554;BME280;49699;48.072;7.800;2023-06-10T06:32:07;99042.63;;;20.17;60.08
63554;BME280;49699;48.072;7.800;2023-06-10T06:34:32;99039.69;;;20.28;59.86
63554;BME280;49699;48.072;7.800;2023-06-10T06:36:58;99038.59;;;20.39;59.38
63554;BME280;49699;48.072;7.800;2023-06-10T06:39:24;99043.44;;;20.52;59.49
63554;BME280;49699;48.072;7.800;2023-06-10T06:41:50;99046.44;;;20.65;59.12
63554;BME280;49699;48.072;7.800;2023-06-10T06:44:15;99048.44;;;20.79;58.93
63554;BME280;49699;48.072;7.800;2023-06-10T06:46:43;99043.00;;;20.97;58.65
63554;BME280;49699;48.072;7.800;2023-06-10T06:49:08;99045.34;;;21.16;58.05
63554;BME280;49699;48.072;7.800;2023-06-10T06:51:34;99045.88;;;21.36;57.63
63554;BME280;49699;48.072;7.800;2023-06-10T06:53:59;99050.84;;;21.47;56.94
63554;BME280;49699;48.072;7.800;2023-06-10T06:56:25;99057.44;;;21.51;57.09
63554;BME280;49699;48.072;7.800;2023-06-10T06:58:51;99063.91;;;21.65;56.72
63554;BME280;49699;48.072;7.800;2023-06-10T07:01:17;99054.75;;;21.83;56.28
63554;BME280;49699;48.072;7.800;2023-06-10T07:03:42;99046.47;;;22.03;55.80
63554;BME280;49699;48.072;7.800;2023-06-10T07:06:07;99050.41;;;22.07;55.71
63554;BME280;49699;48.072;7.800;2023-06-10T07:08:33;99048.75;;;22.06;55.59
63554;BME280;49699;48.072;7.800;2023-06-10T07:10:58;99054.38;;;22.11;55.68
63554;BME280;49699;48.072;7.800;2023-06-10T07:13:24;99047.50;;;22.25;55.29
63554;BME280;49699;48.072;7.800;2023-06-10T07:15:49;99049.09;;;22.42;54.78
63554;BME280;49699;48.072;7.800;2023-06-10T07:18:15;99046.84;;;22.62;54.39
63554;BME280;49699;48.072;7.800;2023-06-10T07:20:42;99039.44;;;22.88;54.21
63554;BME280;49699;48.072;7.800;2023-06-10T07:23:07;99042.72;;;23.13;53.44
63554;BME280;49699;48.072;7.800;2023-06-10T07:25:33;99036.81;;;23.26;53.25
63554;BME280;49699;48.072;7.800;2023-06-10T07:27:58;99034.38;;;23.39;53.08
63554;BME280;49699;48.072;7.800;2023-06-10T07:30:24;99028.13;;;23.54;52.56
63554;BME280;49699;48.072;7.800;2023-06-10T07:32:49;99026.75;;;23.59;52.53
63554;BME280;49699;48.072;7.800;2023-06-10T07:35:16;99029.59;;;23.72;51.97
63554;BME280;49699;48.072;7.800;2023-06-10T07:37:42;99031.44;;;23.86;51.84
63554;BME280;49699;48.072;7.800;2023-06-10T07:40:08;99027.03;;;24.08;51.34
63554;BME280;49699;48.072;7.800;2023-06-10T07:42:34;99028.78;;;24.30;50.85
63554;BME280;49699;48.072;7.800;2023-06-10T07:45:00;99034.28;;;24.43;50.51
63554;BME280;49699;48.072;7.800;2023-06-10T07:47:26;99038.16;;;24.62;50.08
63554;BME280;49699;48.072;7.800;2023-06-10T07:49:51;99041.69;;;24.84;49.34
63554;BME280;49699;48.072;7.800;2023-06-10T07:52:17;99041.66;;;24.99;49.23
63554;BME280;49699;48.072;7.800;2023-06-10T07:54:42;99039.13;;;25.12;49.04
63554;BME280;49699;48.072;7.800;2023-06-10T07:57:08;99039.66;;;25.29;48.59
63554;BME280;49699;48.072;7.800;2023-06-10T07:59:33;99039.38;;;25.45;48.01
63554;BME280;49699;48.072;7.800;2023-06-10T08:01:59;99037.34;;;25.68;47.33
63554;BME280;49699;48.072;7.800;2023-06-10T08:04:24;99041.59;;;25.90;47.18
63554;BME280;49699;48.072;7.800;2023-06-10T08:06:50;99036.63;;;26.15;46.19
63554;BME280;49699;48.072;7.800;2023-06-10T08:09:16;99035.88;;;26.35;45.93
63554;BME280;49699;48.072;7.800;2023-06-10T08:11:41;99043.97;;;26.48;45.62
63554;BME280;49699;48.072;7.800;2023-06-10T08:14:07;99045.84;;;26.60;45.17
63554;BME280;49699;48.072;7.800;2023-06-10T08:16:32;99047.25;;;26.56;44.48
63554;BME280;49699;48.072;7.800;2023-06-10T08:18:58;99042.31;;;26.53;45.22
63554;BME280;49699;48.072;7.800;2023-06-10T08:21:23;99041.72;;;26.58;44.26
63554;BME280;49699;48.072;7.800;2023-06-10T08:23:52;99045.47;;;26.77;44.44
63554;BME280;49699;48.072;7.800;2023-06-10T08:26:18;99036.53;;;27.04;44.31
63554;BME280;49699;48.072;7.800;2023-06-10T08:28:43;99035.94;;;27.22;43.79
63554;BME280;49699;48.072;7.800;2023-06-10T08:31:09;99034.91;;;27.36;43.68
63554;BME280;49699;48.072;7.800;2023-06-10T08:33:34;99025.47;;;27.60;43.34
63554;BME280;49699;48.072;7.800;2023-06-10T08:36:00;99029.78;;;27.74;43.08
63554;BME280;49699;48.072;7.800;2023-06-10T08:38:25;99030.78;;;27.86;42.55
63554;BME280;49699;48.072;7.800;2023-06-10T08:40:53;99024.59;;;27.92;42.17
63554;BME280;49699;48.072;7.800;2023-06-10T08:43:37;99029.09;;;28.05;41.90
63554;BME280;49699;48.072;7.800;2023-06-10T08:46:06;99021.63;;;28.27;41.73
63554;BME280;49699;48.072;7.800;2023-06-10T08:48:34;99021.75;;;28.45;41.17
63554;BME280;49699;48.072;7.800;2023-06-10T08:51:03;99019.63;;;28.60;40.99
63554;BME280;49699;48.072;7.800;2023-06-10T08:53:31;99014.81;;;28.69;40.60
63554;BME280;49699;48.072;7.800;2023-06-10T08:56:00;99027.78;;;28.72;40.85
63554;BME280;49699;48.072;7.800;2023-06-10T08:58:28;99012.50;;;28.79;40.61
63554;BME280;49699;48.072;7.800;2023-06-10T09:00:54;99014.50;;;28.90;40.34
63554;BME280;49699;48.072;7.800;2023-06-10T09:03:20;99013.28;;;28.86;40.26
63554;BME280;49699;48.072;7.800;2023-06-10T09:05:46;99010.63;;;28.86;40.26
63554;BME280;49699;48.072;7.800;2023-06-10T09:08:15;99007.88;;;28.99;40.09
63554;BME280;49699;48.072;7.800;2023-06-10T09:10:40;99003.22;;;29.13;39.69
63554;BME280;49699;48.072;7.800;2023-06-10T09:13:06;99002.13;;;29.21;39.27
63554;BME280;49699;48.072;7.800;2023-06-10T09:15:31;99006.63;;;29.27;39.11
63554;BME280;49699;48.072;7.800;2023-06-10T09:17:57;99006.13;;;29.36;39.02
63554;BME280;49699;48.072;7.800;2023-06-10T09:20:23;99000.16;;;29.59;38.66
63554;BME280;49699;48.072;7.800;2023-06-10T09:22:49;99003.31;;;29.75;38.12
63554;BME280;49699;48.072;7.800;2023-06-10T09:25:14;98999.88;;;29.67;37.33
63554;BME280;49699;48.072;7.800;2023-06-10T09:27:52;98993.84;;;29.54;37.69
63554;BME280;49699;48.072;7.800;2023-06-10T09:30:30;98998.19;;;29.73;37.39
63554;BME280;49699;48.072;7.800;2023-06-10T09:32:58;98994.91;;;29.89;37.38
63554;BME280;49699;48.072;7.800;2023-06-10T09:35:29;98992.75;;;29.98;36.96
63554;BME280;49699;48.072;7.800;2023-06-10T09:37:56;98986.34;;;29.99;36.90
63554;BME280;49699;48.072;7.800;2023-06-10T09:40:21;98993.34;;;30.18;36.69
63554;BME280;49699;48.072;7.800;2023-06-10T09:42:53;98987.81;;;30.31;36.51
63554;BME280;49699;48.072;7.800;2023-06-10T09:45:20;98993.72;;;30.22;36.48
63554;BME280;49699;48.072;7.800;2023-06-10T09:47:47;98991.41;;;30.25;36.23
63554;BME280;49699;48.072;7.800;2023-06-10T09:50:17;98988.50;;;30.27;36.12
63554;BME280;49699;48.072;7.800;2023-06-10T09:52:42;98993.09;;;30.38;35.97
63554;BME280;49699;48.072;7.800;2023-06-10T09:55:08;98986.13;;;30.67;35.64
63554;BME280;49699;48.072;7.800;2023-06-10T09:57:35;98985.50;;;30.95;35.11
63554;BME280;49699;48.072;7.800;2023-06-10T10:00:09;98989.19;;;30.82;35.15
63554;BME280;49699;48.072;7.800;2023-06-10T10:02:48;98992.06;;;30.57;34.96
63554;BME280;49699;48.072;7.800;2023-06-10T10:05:15;98982.22;;;30.33;35.33
63554;BME280;49699;48.072;7.800;2023-06-10T10:07:41;98985.03;;;30.38;35.48
63554;BME280;49699;48.072;7.800;2023-06-10T10:10:07;98986.72;;;30.51;35.46
63554;BME280;49699;48.072;7.800;2023-06-10T10:12:34;98979.13;;;30.48;35.37
63554;BME280;49699;48.072;7.800;2023-06-10T10:15:02;98989.13;;;30.59;35.28
63554;BME280;49699;48.072;7.800;2023-06-10T10:17:27;98970.97;;;30.72;35.09
63554;BME280;49699;48.072;7.800;2023-06-10T10:19:59;98974.38;;;30.80;34.93
63554;BME280;49699;48.072;7.800;2023-06-10T10:22:31;98976.56;;;30.83;34.55
63554;BME280;49699;48.072;7.800;2023-06-10T10:25:02;98980.59;;;30.92;34.53
63554;BME280;49699;48.072;7.800;2023-06-10T10:27:36;98973.47;;;30.97;33.95
63554;BME280;49699;48.072;7.800;2023-06-10T10:30:02;98967.28;;;30.97;34.09
63554;BME280;49699;48.072;7.800;2023-06-10T10:32:54;98969.84;;;31.03;33.40
63554;BME280;49699;48.072;7.800;2023-06-10T10:35:21;98963.50;;;30.86;33.18
63554;BME280;49699;48.072;7.800;2023-06-10T10:37:49;98961.88;;;30.85;33.48
63554;BME280;49699;48.072;7.800;2023-06-10T10:40:16;98970.31;;;31.00;33.35
63554;BME280;49699;48.072;7.800;2023-06-10T10:42:42;98968.03;;;31.16;33.11
63554;BME280;49699;48.072;7.800;2023-06-10T10:45:09;98961.03;;;31.15;32.86
63554;BME280;49699;48.072;7.800;2023-06-10T10:47:35;98966.03;;;31.23;33.16
63554;BME280;49699;48.072;7.800;2023-06-10T10:50:13;98965.13;;;31.29;32.92
63554;BME280;49699;48.072;7.800;2023-06-10T10:52:56;98960.91;;;31.21;32.34
63554;BME280;49699;48.072;7.800;2023-06-10T10:55:24;98966.41;;;31.15;32.34
63554;BME280;49699;48.072;7.800;2023-06-10T10:58:06;98951.31;;;31.25;32.38
63554;BME280;49699;48.072;7.800;2023-06-10T11:00:41;98959.28;;;31.32;32.59
63554;BME280;49699;48.072;7.800;2023-06-10T11:03:13;98945.13;;;31.48;32.43
63554;BME280;49699;48.072;7.800;2023-06-10T11:05:44;98949.44;;;31.61;31.64
63554;BME280;49699;48.072;7.800;2023-06-10T11:08:13;98946.16;;;31.59;31.55
63554;BME280;49699;48.072;7.800;2023-06-10T11:10:40;98949.34;;;31.44;32.02
63554;BME280;49699;48.072;7.800;2023-06-10T11:13:12;98948.63;;;31.49;32.20
63554;BME280;49699;48.072;7.800;2023-06-10T11:15:49;98947.44;;;31.56;31.35
63554;BME280;49699;48.072;7.800;2023-06-10T11:18:28;98944.53;;;31.58;32.02
63554;BME280;49699;48.072;7.800;2023-06-10T11:26:21;98939.50;;;31.50;30.92
63554;BME280;49699;48.072;7.800;2023-06-10T11:34:00;98934.47;;;31.41;30.90
63554;BME280;49699;48.072;7.800;2023-06-10T11:36:26;98928.63;;;31.45;31.34
63554;BME280;49699;48.072;7.800;2023-06-10T11:38:57;98929.91;;;31.54;31.06
63554;BME280;49699;48.072;7.800;2023-06-10T11:41:24;98925.91;;;31.56;31.03
63554;BME280;49699;48.072;7.800;2023-06-10T11:43:52;98923.69;;;31.65;30.62
63554;BME280;49699;48.072;7.800;2023-06-10T11:46:17;98924.28;;;31.79;30.45
63554;BME280;49699;48.072;7.800;2023-06-10T11:48:51;98908.66;;;31.92;30.32
63554;BME280;49699;48.072;7.800;2023-06-10T11:51:16;98913.91;;;31.47;30.94
63554;BME280;49699;48.072;7.800;2023-06-10T11:53:48;98917.25;;;30.84;32.08
63554;BME280;49699;48.072;7.800;2023-06-10T11:56:19;98917.91;;;30.68;32.34
63554;BME280;49699;48.072;7.800;2023-06-10T11:58:44;98919.81;;;30.79;31.96
63554;BME280;49699;48.072;7.800;2023-06-10T12:01:10;98909.09;;;30.91;31.90
63554;BME280;49699;48.072;7.800;2023-06-10T12:03:37;98914.69;;;31.01;31.94
63554;BME280;49699;48.072;7.800;2023-06-10T12:06:05;98916.41;;;30.84;31.97
63554;BME280;49699;48.072;7.800;2023-06-10T12:08:31;98906.16;;;30.81;31.61
63554;BME280;49699;48.072;7.800;2023-06-10T12:10:57;98905.72;;;30.95;31.66
63554;BME280;49699;48.072;7.800;2023-06-10T12:13:26;98904.47;;;31.33;30.87
63554;BME280;49699;48.072;7.800;2023-06-10T12:15:51;98910.03;;;31.66;30.58
63554;BME280;49699;48.072;7.800;2023-06-10T12:18:23;98900.84;;;31.91;30.32
63554;BME280;49699;48.072;7.800;2023-06-10T12:20:50;98900.88;;;32.07;29.81
63554;BME280;49699;48.072;7.800;2023-06-10T12:23:18;98891.88;;;32.14;29.66
63554;BME280;49699;48.072;7.800;2023-06-10T12:25:54;98896.59;;;32.35;29.86
63554;BME280;49699;48.072;7.800;2023-06-10T12:28:24;98899.22;;;32.47;29.43
63554;BME280;49699;48.072;7.800;2023-06-10T12:30:49;98895.97;;;32.61;29.32
63554;BME280;49699;48.072;7.800;2023-06-10T12:33:19;98891.38;;;32.73;28.68
63554;BME280;49699;48.072;7.800;2023-06-10T12:35:49;98893.06;;;32.80;28.49
63554;BME280;49699;48.072;7.800;2023-06-10T12:38:21;98889.41;;;32.86;28.29
63554;BME280;49699;48.072;7.800;2023-06-10T12:40:47;98890.38;;;32.80;27.98
63554;BME280;49699;48.072;7.800;2023-06-10T12:43:12;98883.16;;;32.68;28.19
63554;BME280;49699;48.072;7.800;2023-06-10T12:45:39;98889.84;;;32.66;28.33
63554;BME280;49699;48.072;7.800;2023-06-10T12:48:12;98887.63;;;32.74;28.13
63554;BME280;49699;48.072;7.800;2023-06-10T12:50:39;98885.53;;;32.65;28.27
63554;BME280;49699;48.072;7.800;2023-06-10T12:53:05;98889.75;;;32.61;28.21
63554;BME280;49699;48.072;7.800;2023-06-10T12:55:31;98883.06;;;32.47;28.45
63554;BME280;49699;48.072;7.800;2023-06-10T12:57:58;98877.81;;;32.23;28.86
63554;BME280;49699;48.072;7.800;2023-06-10T13:00:23;98881.41;;;32.00;29.60
63554;BME280;49699;48.072;7.800;2023-06-10T13:02:52;98888.94;;;31.87;29.88
63554;BME280;49699;48.072;7.800;2023-06-10T13:05:18;98885.03;;;31.66;29.74
63554;BME280;49699;48.072;7.800;2023-06-10T13:07:46;98878.00;;;31.41;30.02
63554;BME280;49699;48.072;7.800;2023-06-10T13:10:15;98867.41;;;31.23;30.12
63554;BME280;49699;48.072;7.800;2023-06-10T13:12:42;98864.09;;;31.10;30.01
63554;BME280;49699;48.072;7.800;2023-06-10T13:15:08;98866.31;;;30.89;30.34
63554;BME280;49699;48.072;7.800;2023-06-10T13:17:33;98861.50;;;30.68;30.54